Time;durP1;ratioP1;P1;durP2;ratioP2;P2;SDS_P1;SDS_P2;PMS_P1;PMS_P2;Temp;Humidity;BMP_temperature;BMP_pressure;BME280_temperature;BME280_humidity;BME280_pressure;Samples;Min_cycle;Max_cycle;Signal;HPM_P1;HPM_P2
2022/06/17 00:00:48;;;;;;;2.50;2.30;;;20.40;62.90;;;;;;6035282;23;20444;-82
2022/06/17 00:03:15;;;;;;;4.47;2.57;;;20.40;63.30;;;;;;6034485;23;20923;-83
2022/06/17 00:05:42;;;;;;;2.50;2.30;;;20.40;63.30;;;;;;6032684;23;20481;-82
2022/06/17 00:08:15;;;;;;;2.63;2.43;;;20.30;63.80;;;;;;6033776;23;21321;-83
2022/06/17 00:10:42;;;;;;;5.27;2.77;;;20.30;64.10;;;;;;6044887;23;20482;-83
2022/06/17 00:13:14;;;;;;;2.77;2.50;;;20.30;64.40;;;;;;6039034;23;20468;-83
2022/06/17 00:15:42;;;;;;;3.37;2.90;;;20.20;64.70;;;;;;6023415;23;20436;-82
2022/06/17 00:18:09;;;;;;;2.70;2.50;;;20.20;64.80;;;;;;6033634;23;20468;-82
2022/06/17 00:20:37;;;;;;;2.83;2.63;;;20.10;65.20;;;;;;6036329;23;20799;-83
2022/06/17 00:23:04;;;;;;;2.40;2.30;;;20.10;65.50;;;;;;6047865;23;20478;-82
2022/06/17 00:25:33;;;;;;;2.67;2.47;;;20.00;65.70;;;;;;6035648;23;20448;-82
2022/06/17 00:28:00;;;;;;;2.70;2.50;;;20.00;66.10;;;;;;6032845;23;20780;-82
2022/06/17 00:30:30;;;;;;;2.57;2.37;;;20.00;66.60;;;;;;6037437;23;20481;-82
2022/06/17 00:32:59;;;;;;;3.30;2.40;;;19.90;66.80;;;;;;6035919;23;20622;-83
2022/06/17 00:35:32;;;;;;;2.60;2.40;;;19.90;67.30;;;;;;6050929;23;20594;-83
2022/06/17 00:38:00;;;;;;;3.53;2.10;;;19.80;67.20;;;;;;6037773;23;20447;-83
2022/06/17 00:40:30;;;;;;;2.90;2.70;;;19.80;68.30;;;;;;6039358;23;20828;-82
2022/06/17 00:42:58;;;;;;;3.33;2.50;;;19.70;68.20;;;;;;6049365;23;20483;-82
2022/06/17 00:45:30;;;;;;;2.93;2.63;;;19.70;68.50;;;;;;6029840;23;20435;-81
2022/06/17 00:48:03;;;;;;;2.80;2.60;;;19.60;68.80;;;;;;6041514;23;20475;-81
2022/06/17 00:50:37;;;;;;;2.63;2.43;;;19.60;69.40;;;;;;6036087;23;20472;-81
2022/06/17 00:53:17;;;;;;;2.57;2.30;;;19.60;69.80;;;;;;6032551;23;20475;-82
2022/06/17 00:55:49;;;;;;;2.60;2.40;;;19.50;70.00;;;;;;6045965;23;20424;-82
2022/06/17 00:58:19;;;;;;;3.23;2.93;;;19.50;70.50;;;;;;6036443;23;20494;-82
2022/06/17 01:00:52;;;;;;;2.57;2.40;;;19.40;70.60;;;;;;6047170;23;21027;-81
2022/06/17 01:03:22;;;;;;;2.43;2.23;;;19.40;71.20;;;;;;6036952;23;20472;-81
2022/06/17 01:05:53;;;;;;;2.63;2.43;;;19.40;71.50;;;;;;6039145;23;20447;-81
2022/06/17 01:11:13;;;;;;;2.80;2.50;;;19.30;72.00;;;;;;6018785;23;20989;-83
2022/06/17 01:13:41;;;;;;;3.17;2.80;;;19.30;72.40;;;;;;6034855;23;20506;-83
2022/06/17 01:16:09;;;;;;;3.20;2.30;;;19.20;72.50;;;;;;6032489;23;20843;-83
2022/06/17 01:18:44;;;;;;;2.80;2.50;;;19.20;73.00;;;;;;6034577;23;20498;-83
2022/06/17 01:21:19;;;;;;;2.90;2.60;;;19.10;72.90;;;;;;6043414;23;20456;-83
2022/06/17 01:23:49;;;;;;;4.33;2.23;;;19.00;73.30;;;;;;6046228;23;20447;-83
2022/06/17 01:26:17;;;;;;;3.07;2.70;;;19.00;73.70;;;;;;6032706;23;20447;-82
2022/06/17 01:28:44;;;;;;;2.60;2.40;;;19.00;74.10;;;;;;6035510;23;20784;-83
2022/06/17 01:31:12;;;;;;;2.70;2.50;;;19.00;74.40;;;;;;6029527;23;20460;-83
2022/06/17 01:33:42;;;;;;;2.50;2.30;;;18.90;74.70;;;;;;6050739;23;20464;-82
2022/06/17 01:36:12;;;;;;;2.83;2.63;;;18.90;75.10;;;;;;6056012;23;20451;-82
2022/06/17 01:38:42;;;;;;;2.60;2.40;;;18.90;75.60;;;;;;6046423;23;20432;-83
2022/06/17 01:41:14;;;;;;;3.27;2.30;;;18.80;75.70;;;;;;6031360;23;20452;-82
2022/06/17 01:43:48;;;;;;;2.60;2.40;;;18.80;75.90;;;;;;6042133;23;21003;-82
2022/06/17 01:46:19;;;;;;;2.70;2.50;;;18.80;76.00;;;;;;6025454;23;20518;-83
2022/06/17 01:48:52;;;;;;;2.73;2.53;;;18.80;76.60;;;;;;6034344;23;20543;-82
2022/06/17 01:51:21;;;;;;;4.73;2.40;;;18.70;76.70;;;;;;6032538;23;20530;-83
2022/06/17 01:53:53;;;;;;;2.40;2.20;;;18.70;77.10;;;;;;6037587;23;20529;-83
2022/06/17 01:56:26;;;;;;;2.87;2.67;;;18.70;77.80;;;;;;6031427;23;20538;-83
2022/06/17 01:58:58;;;;;;;2.90;2.67;;;18.70;77.90;;;;;;6037814;23;20942;-83
2022/06/17 02:01:29;;;;;;;2.80;2.60;;;18.60;78.20;;;;;;6037833;23;20495;-83
2022/06/17 02:03:59;;;;;;;4.50;2.40;;;18.60;78.50;;;;;;6034761;23;20440;-83
2022/06/17 02:06:31;;;;;;;3.27;2.70;;;18.60;79.00;;;;;;6043739;23;20841;-83
2022/06/17 02:08:59;;;;;;;3.00;2.67;;;18.50;79.40;;;;;;6036821;23;20443;-82
2022/06/17 02:11:27;;;;;;;2.77;2.57;;;18.50;79.60;;;;;;6032107;23;20480;-83
2022/06/17 02:13:54;;;;;;;3.50;2.60;;;18.50;79.70;;;;;;6039910;23;20477;-82
2022/06/17 02:16:22;;;;;;;2.60;2.40;;;18.40;80.40;;;;;;6033714;23;20989;-83
2022/06/17 02:18:50;;;;;;;2.40;2.30;;;18.40;80.40;;;;;;6015900;23;20452;-83
2022/06/17 02:21:24;;;;;;;2.80;2.60;;;18.40;80.60;;;;;;6040619;23;21050;-82
2022/06/17 02:23:52;;;;;;;2.50;2.30;;;18.40;81.30;;;;;;6042818;23;20439;-82
2022/06/17 02:26:19;;;;;;;2.60;2.40;;;18.30;81.50;;;;;;6032733;23;20828;-82
2022/06/17 02:28:49;;;;;;;2.27;2.17;;;18.40;81.70;;;;;;6031288;23;20466;-82
2022/06/17 02:31:18;;;;;;;2.63;2.20;;;18.30;82.00;;;;;;6033875;23;20550;-83
2022/06/17 02:33:48;;;;;;;2.90;2.70;;;18.30;81.90;;;;;;6031998;23;20941;-83
2022/06/17 02:36:21;;;;;;;2.50;2.33;;;18.30;82.20;;;;;;6032125;23;21077;-83
2022/06/17 02:38:48;;;;;;;2.57;2.33;;;18.20;82.50;;;;;;6042243;23;20443;-82
2022/06/17 02:41:19;;;;;;;3.50;2.43;;;18.20;83.00;;;;;;6033284;23;20471;-83
2022/06/17 02:43:53;;;;;;;2.97;2.53;;;18.20;82.90;;;;;;6035508;23;20424;-82
2022/06/17 02:46:26;;;;;;;3.63;2.37;;;18.10;82.50;;;;;;6046884;23;20447;-82
2022/06/17 02:48:56;;;;;;;2.60;2.40;;;18.10;82.80;;;;;;6037188;23;20436;-83
2022/06/17 02:51:27;;;;;;;2.53;2.33;;;18.00;83.10;;;;;;6051017;23;20466;-82
2022/06/17 02:53:54;;;;;;;2.90;2.40;;;18.00;83.60;;;;;;6037643;23;20524;-82
2022/06/17 02:56:25;;;;;;;2.93;2.20;;;18.00;84.10;;;;;;6044307;23;20451;-82
2022/06/17 02:59:03;;;;;;;2.67;2.47;;;18.00;84.90;;;;;;6036494;23;20425;-82
2022/06/17 03:01:32;;;;;;;5.17;2.53;;;18.00;84.80;;;;;;6040956;23;21012;-82
2022/06/17 03:04:00;;;;;;;2.53;2.33;;;17.90;85.40;;;;;;6058096;23;20452;-83
2022/06/17 03:06:33;;;;;;;2.50;2.30;;;18.00;85.90;;;;;;6018227;23;20521;-82
2022/06/17 03:09:14;;;;;;;2.53;2.30;;;17.90;85.90;;;;;;6054435;23;20444;-82
2022/06/17 03:11:42;;;;;;;2.70;2.50;;;17.90;86.30;;;;;;6051658;23;20478;-82
2022/06/17 03:14:12;;;;;;;2.83;2.20;;;17.90;86.20;;;;;;6032655;23;20460;-82
2022/06/17 03:16:39;;;;;;;2.83;2.23;;;17.90;86.70;;;;;;6034249;23;20471;-82
2022/06/17 03:19:07;;;;;;;2.70;2.50;;;17.90;87.10;;;;;;6037495;23;20943;-82
2022/06/17 03:21:35;;;;;;;2.40;2.20;;;17.90;87.00;;;;;;6044578;23;20455;-82
2022/06/17 03:24:11;;;;;;;3.20;2.50;;;17.90;87.00;;;;;;6044231;23;20518;-82
2022/06/17 03:26:45;;;;;;;3.33;2.23;;;17.90;87.20;;;;;;6034741;23;20872;-82
2022/06/17 03:29:16;;;;;;;2.70;2.50;;;17.80;87.80;;;;;;6042284;23;20435;-82
2022/06/17 03:31:48;;;;;;;2.53;2.33;;;17.80;88.00;;;;;;6043914;23;20483;-82
2022/06/17 03:34:18;;;;;;;2.50;2.30;;;17.80;88.50;;;;;;6035393;23;20455;-81
2022/06/17 03:36:50;;;;;;;2.63;2.40;;;17.80;88.50;;;;;;6057596;23;20447;-82
2022/06/17 03:39:23;;;;;;;3.37;2.87;;;17.70;89.00;;;;;;6055131;23;20444;-82
2022/06/17 03:41:54;;;;;;;2.90;2.63;;;17.70;89.60;;;;;;6051165;23;20474;-81
2022/06/17 03:44:29;;;;;;;3.23;2.50;;;17.80;89.80;;;;;;6034455;23;20437;-82
2022/06/17 03:47:03;;;;;;;2.77;2.43;;;17.70;89.90;;;;;;6032549;23;20496;-82
2022/06/17 03:49:36;;;;;;;2.57;2.37;;;17.70;90.10;;;;;;6039670;23;20441;-82
2022/06/17 03:52:13;;;;;;;2.40;2.30;;;17.80;90.20;;;;;;6052371;23;20554;-82
2022/06/17 03:54:40;;;;;;;3.37;2.73;;;17.80;90.10;;;;;;6033931;23;20982;-82
2022/06/17 03:57:10;;;;;;;2.70;2.50;;;17.90;90.20;;;;;;6047806;23;20493;-82
2022/06/17 03:59:43;;;;;;;2.60;2.40;;;17.90;90.10;;;;;;6045525;23;20436;-82
2022/06/17 04:02:14;;;;;;;2.53;2.30;;;18.10;90.20;;;;;;6047030;23;20562;-82
2022/06/17 04:04:45;;;;;;;2.27;2.07;;;18.00;90.20;;;;;;6036224;23;20444;-82
2022/06/17 04:07:13;;;;;;;2.70;2.50;;;18.10;90.20;;;;;;6034767;23;20523;-82
2022/06/17 04:09:43;;;;;;;2.30;2.10;;;18.20;90.10;;;;;;6042358;23;20444;-82
2022/06/17 04:12:24;;;;;;;2.53;2.33;;;18.20;90.00;;;;;;6044007;23;21003;-82
2022/06/17 04:14:59;;;;;;;3.90;2.23;;;18.30;90.00;;;;;;6032217;23;20443;-82
2022/06/17 04:17:30;;;;;;;2.20;2.10;;;18.30;89.70;;;;;;6033513;23;20459;-82
2022/06/17 04:20:18;;;;;;;2.23;2.03;;;18.30;89.40;;;;;;6033244;23;20957;-82
2022/06/17 04:22:47;;;;;;;2.80;2.40;;;18.40;89.50;;;;;;6038871;23;20494;-82
2022/06/17 04:25:22;;;;;;;2.50;1.90;;;18.50;89.30;;;;;;6034155;23;20862;-82
2022/06/17 04:27:59;;;;;;;2.00;1.90;;;18.40;89.00;;;;;;6038179;23;20436;-83
2022/06/17 04:30:32;;;;;;;2.30;2.10;;;18.50;89.30;;;;;;6045015;23;20471;-82
2022/06/17 04:33:03;;;;;;;2.30;2.10;;;18.50;89.00;;;;;;6035909;23;20448;-82
2022/06/17 04:35:31;;;;;;;2.80;2.10;;;18.60;89.50;;;;;;6005650;23;20453;-82
2022/06/17 04:37:58;;;;;;;2.50;2.30;;;18.60;89.50;;;;;;6035604;23;20495;-82
2022/06/17 04:40:34;;;;;;;2.50;2.30;;;18.60;90.10;;;;;;6031307;23;20436;-82
2022/06/17 04:43:05;;;;;;;3.00;2.67;;;18.60;89.50;;;;;;6033199;23;20455;-82
2022/06/17 04:45:33;;;;;;;6.53;2.50;;;18.60;89.50;;;;;;6033539;23;20522;-78
2022/06/17 04:48:00;;;;;;;2.47;2.27;;;18.60;89.60;;;;;;6043878;23;20443;-78
2022/06/17 04:50:30;;;;;;;2.67;2.13;;;18.60;89.90;;;;;;6029688;23;20436;-77
2022/06/17 04:52:57;;;;;;;3.13;2.43;;;18.70;90.00;;;;;;6025507;23;20555;-77
2022/06/17 04:55:28;;;;;;;2.70;2.03;;;18.70;89.70;;;;;;6037633;23;20436;-78
2022/06/17 04:57:56;;;;;;;2.40;2.20;;;18.70;90.00;;;;;;6043087;23;20515;-78
2022/06/17 05:00:26;;;;;;;7.40;2.80;;;18.70;89.90;;;;;;6038430;23;20745;-78
2022/06/17 05:02:57;;;;;;;3.77;2.30;;;18.80;90.00;;;;;;6042712;23;20448;-78
2022/06/17 05:05:32;;;;;;;2.40;2.20;;;18.90;90.00;;;;;;6043006;23;20456;-78
2022/06/17 05:08:00;;;;;;;3.83;2.20;;;19.00;89.50;;;;;;6045726;23;20943;-78
2022/06/17 05:10:33;;;;;;;2.97;2.10;;;19.00;89.60;;;;;;6049943;23;20482;-79
2022/06/17 05:13:05;;;;;;;2.40;2.20;;;19.00;89.80;;;;;;6035928;23;20456;-78
2022/06/17 05:15:33;;;;;;;2.47;2.27;;;19.10;90.20;;;;;;6014077;23;20469;-78
2022/06/17 05:18:02;;;;;;;2.20;2.00;;;19.10;90.00;;;;;;6015816;23;20444;-78
2022/06/17 05:20:29;;;;;;;2.80;2.60;;;19.20;90.00;;;;;;6023985;23;20451;-78
2022/06/17 05:23:00;;;;;;;2.07;1.87;;;19.30;89.50;;;;;;6025579;23;20476;-77
2022/06/17 05:25:30;;;;;;;1.90;1.80;;;19.50;89.10;;;;;;6029168;23;20993;-78
2022/06/17 05:27:58;;;;;;;2.40;2.20;;;19.60;88.40;;;;;;6028673;23;20432;-78
2022/06/17 05:30:25;;;;;;;2.40;1.90;;;19.70;87.40;;;;;;6027677;23;20448;-78
2022/06/17 05:32:54;;;;;;;2.30;2.10;;;19.80;86.80;;;;;;6044245;23;20967;-76
2022/06/17 05:35:23;;;;;;;2.10;2.00;;;20.00;86.20;;;;;;6025668;23;20928;-78
2022/06/17 05:37:50;;;;;;;2.53;2.20;;;20.10;86.10;;;;;;6032866;23;20468;-76
2022/06/17 05:40:18;;;;;;;2.10;1.90;;;20.20;86.50;;;;;;6031521;23;20449;-78
2022/06/17 05:42:46;;;;;;;2.60;2.40;;;20.30;86.50;;;;;;6042554;23;20435;-78
2022/06/17 05:45:16;;;;;;;3.50;2.00;;;20.40;87.10;;;;;;6040495;23;20474;-77
2022/06/17 05:47:43;;;;;;;3.17;2.53;;;20.40;87.20;;;;;;6043848;23;20448;-78
2022/06/17 05:50:11;;;;;;;2.20;2.00;;;20.40;87.10;;;;;;6039185;23;20448;-78
2022/06/17 05:52:49;;;;;;;2.23;2.03;;;20.50;87.10;;;;;;6034755;23;20483;-78
2022/06/17 05:55:16;;;;;;;2.70;2.40;;;20.60;86.80;;;;;;6036809;23;20990;-78
2022/06/17 05:57:43;;;;;;;2.57;2.37;;;20.60;87.00;;;;;;6045500;23;20471;-78
2022/06/17 06:00:11;;;;;;;3.63;2.60;;;20.60;87.60;;;;;;6033554;23;21621;-78
2022/06/17 06:02:39;;;;;;;2.73;2.50;;;20.60;88.20;;;;;;6039878;23;20440;-78
2022/06/17 06:05:08;;;;;;;2.53;2.33;;;20.70;88.60;;;;;;6038061;23;20997;-78
2022/06/17 06:07:35;;;;;;;2.60;2.40;;;20.70;89.10;;;;;;6033719;23;20431;-79
2022/06/17 06:10:04;;;;;;;4.30;2.40;;;20.80;89.60;;;;;;6012774;23;20447;-77
2022/06/17 06:15:13;;;;;;;3.43;2.40;;;20.90;88.70;;;;;;6036524;23;20450;-77
2022/06/17 06:17:40;;;;;;;2.53;2.33;;;21.00;89.00;;;;;;6028826;23;20428;-78
2022/06/17 06:20:08;;;;;;;3.23;2.97;;;21.00;88.00;;;;;;6040263;23;20432;-78
2022/06/17 06:22:35;;;;;;;2.80;2.60;;;21.10;88.70;;;;;;6035396;23;20471;-77
2022/06/17 06:25:04;;;;;;;3.43;2.60;;;21.20;88.90;;;;;;6044029;23;20509;-78
2022/06/17 06:27:31;;;;;;;3.33;2.20;;;21.20;88.00;;;;;;6035633;23;20456;-78
2022/06/17 06:29:58;;;;;;;3.03;2.23;;;21.20;85.80;;;;;;6032655;23;20443;-80
2022/06/17 06:32:26;;;;;;;2.10;2.00;;;21.20;85.10;;;;;;6038598;23;20476;-82
2022/06/17 06:34:53;;;;;;;2.00;1.90;;;21.20;85.00;;;;;;6038323;23;20567;-83
2022/06/17 06:37:20;;;;;;;2.90;2.20;;;21.30;83.40;;;;;;6045990;23;20458;-84
2022/06/17 06:39:48;;;;;;;2.43;2.20;;;21.40;83.30;;;;;;6038741;23;20440;-82
2022/06/17 06:42:16;;;;;;;2.60;2.40;;;21.40;83.00;;;;;;6034546;23;20535;-83
2022/06/17 06:44:43;;;;;;;2.37;2.17;;;21.40;83.20;;;;;;6030963;23;20432;-82
2022/06/17 06:47:12;;;;;;;2.60;2.40;;;21.40;84.00;;;;;;6028927;23;20464;-82
2022/06/17 06:49:39;;;;;;;3.40;2.50;;;21.30;84.00;;;;;;6036706;23;20440;-81
2022/06/17 06:52:07;;;;;;;3.03;2.50;;;21.40;84.00;;;;;;6035910;23;20470;-83
2022/06/17 06:54:34;;;;;;;5.40;2.80;;;21.50;84.50;;;;;;6042953;23;20436;-82
2022/06/17 06:57:01;;;;;;;4.50;2.70;;;21.50;83.20;;;;;;6034832;23;20437;-82
2022/06/17 06:59:29;;;;;;;2.27;2.17;;;21.30;83.10;;;;;;6043379;23;20499;-81
2022/06/17 07:01:57;;;;;;;2.73;2.27;;;21.40;83.20;;;;;;6066756;23;20465;-81
2022/06/17 07:04:24;;;;;;;3.80;2.60;;;21.50;83.60;;;;;;6031366;23;20527;-81
2022/06/17 07:06:51;;;;;;;2.93;2.40;;;21.60;83.40;;;;;;6027308;23;20444;-82
2022/06/17 07:09:18;;;;;;;2.53;2.33;;;21.90;83.30;;;;;;6035328;23;20459;-83
2022/06/17 07:11:45;;;;;;;2.53;2.33;;;21.90;83.20;;;;;;6050566;23;21036;-81
2022/06/17 07:14:12;;;;;;;2.50;2.20;;;22.10;83.20;;;;;;6051514;23;20452;-82
2022/06/17 07:16:40;;;;;;;3.20;2.63;;;22.00;82.40;;;;;;6043555;23;20447;-82
2022/06/17 07:19:19;;;;;;;3.30;2.50;;;22.00;83.50;;;;;;6046291;23;20462;-82
2022/06/17 07:21:48;;;;;;;2.73;2.53;;;21.90;84.50;;;;;;6039278;23;20542;-81
2022/06/17 07:24:29;;;;;;;2.83;2.27;;;21.80;83.50;;;;;;6034996;23;20445;-83
2022/06/17 07:26:56;;;;;;;2.83;2.43;;;21.70;83.10;;;;;;6047483;23;20444;-82
2022/06/17 07:29:26;;;;;;;3.10;2.70;;;21.70;84.90;;;;;;6056749;23;20452;-81
2022/06/17 07:31:54;;;;;;;2.97;2.67;;;21.80;86.10;;;;;;6052559;23;20493;-82
2022/06/17 07:34:21;;;;;;;3.00;2.80;;;22.00;86.80;;;;;;6050961;23;20787;-82
2022/06/17 07:39:57;;;;;;;3.83;3.00;;;22.50;83.60;;;;;;6056806;23;20460;-82
2022/06/17 07:42:27;;;;;;;2.97;2.77;;;22.60;81.90;;;;;;6047370;23;20448;-81
2022/06/17 07:44:54;;;;;;;2.50;2.30;;;22.70;80.70;;;;;;6045934;23;20524;-81
2022/06/17 07:47:24;;;;;;;3.00;2.80;;;22.90;79.10;;;;;;6039941;23;20440;-81
2022/06/17 07:49:51;;;;;;;2.90;2.60;;;23.30;79.10;;;;;;6038965;23;20524;-82
2022/06/17 07:52:18;;;;;;;5.80;2.70;;;23.80;78.10;;;;;;6044832;23;20467;-81
2022/06/17 07:54:45;;;;;;;5.67;2.40;;;24.50;77.40;;;;;;6035643;23;20448;-81
2022/06/17 07:57:14;;;;;;;2.70;2.50;;;25.20;74.80;;;;;;6036629;23;20463;-78
2022/06/17 07:59:41;;;;;;;3.20;2.90;;;25.70;73.10;;;;;;6036154;23;20439;-82
2022/06/17 08:02:08;;;;;;;3.67;3.20;;;25.90;72.00;;;;;;6041001;23;20534;-82
2022/06/17 08:04:38;;;;;;;3.53;2.87;;;26.20;71.80;;;;;;6038999;23;21019;-82
2022/06/17 08:07:05;;;;;;;3.10;2.50;;;26.60;70.60;;;;;;6039220;23;20840;-82
2022/06/17 08:09:32;;;;;;;3.40;3.10;;;26.70;69.30;;;;;;6042617;23;20843;-82
2022/06/17 08:12:00;;;;;;;3.00;2.70;;;26.90;67.40;;;;;;6043786;23;20444;-82
2022/06/17 08:14:27;;;;;;;2.70;2.50;;;27.20;67.40;;;;;;6035675;23;20440;-82
2022/06/17 08:16:54;;;;;;;3.10;2.80;;;27.20;65.80;;;;;;6034799;23;20436;-83
2022/06/17 08:19:21;;;;;;;3.57;3.27;;;27.40;66.40;;;;;;6044939;23;20451;-83
2022/06/17 08:21:50;;;;;;;3.20;2.97;;;27.70;65.60;;;;;;6038596;23;20456;-82
2022/06/17 08:24:17;;;;;;;2.87;2.67;;;28.00;63.10;;;;;;6042517;23;20724;-82
2022/06/17 08:26:44;;;;;;;3.43;3.00;;;28.10;62.10;;;;;;6041599;23;20471;-82
2022/06/17 08:29:12;;;;;;;3.23;3.00;;;28.30;62.10;;;;;;6039469;23;20451;-81
2022/06/17 08:31:39;;;;;;;3.27;2.97;;;28.40;61.50;;;;;;6041187;23;20567;-81
2022/06/17 08:34:06;;;;;;;3.40;2.90;;;28.00;61.00;;;;;;6028107;23;20468;-82
2022/06/17 08:36:33;;;;;;;2.93;2.70;;;28.20;62.40;;;;;;6040871;23;20939;-82
2022/06/17 08:39:04;;;;;;;3.10;2.53;;;28.70;61.10;;;;;;6044337;23;20839;-82
2022/06/17 08:41:33;;;;;;;3.13;2.87;;;29.00;60.20;;;;;;6036154;23;20456;-83
2022/06/17 08:44:27;;;;;;;4.13;2.83;;;29.10;59.80;;;;;;6035159;23;20819;-83
2022/06/17 08:47:29;;;;;;;2.90;2.60;;;29.20;59.80;;;;;;6039499;23;20447;-84
2022/06/17 08:50:31;;;;;;;3.30;2.80;;;29.50;59.00;;;;;;6042337;23;20946;-82
2022/06/17 08:53:30;;;;;;;2.93;2.67;;;30.20;58.10;;;;;;5993109;23;20464;-82
2022/06/17 08:56:06;;;;;;;3.33;3.03;;;30.40;58.00;;;;;;6039844;23;20973;-81
2022/06/17 08:58:44;;;;;;;3.43;2.70;;;30.20;57.50;;;;;;6038733;23;20941;-82
2022/06/17 09:01:21;;;;;;;2.50;2.23;;;30.70;57.00;;;;;;6042119;23;20471;-82
2022/06/17 09:04:07;;;;;;;3.20;2.80;;;31.20;56.10;;;;;;6034880;23;20435;-82
2022/06/17 09:06:47;;;;;;;3.20;2.70;;;31.60;54.70;;;;;;6033335;23;20447;-80
2022/06/17 09:09:25;;;;;;;2.90;2.17;;;31.60;55.10;;;;;;6028507;23;20485;-81
2022/06/17 09:12:00;;;;;;;2.03;1.83;;;31.90;54.50;;;;;;6030413;23;20435;-81
2022/06/17 09:14:38;;;;;;;3.83;2.57;;;32.50;51.10;;;;;;6045258;23;20970;-82
2022/06/17 09:17:13;;;;;;;2.57;2.40;;;32.80;50.40;;;;;;6033557;23;20436;-81
2022/06/17 09:19:45;;;;;;;2.67;2.10;;;32.70;51.00;;;;;;6042666;23;20491;-82
2022/06/17 09:22:17;;;;;;;2.40;2.20;;;32.70;51.40;;;;;;6036180;23;20498;-82
2022/06/17 09:24:45;;;;;;;2.03;1.90;;;33.10;51.50;;;;;;6045433;23;20443;-81
2022/06/17 09:27:20;;;;;;;3.53;2.60;;;32.60;47.80;;;;;;6036269;23;20996;-80
2022/06/17 09:29:53;;;;;;;2.40;2.30;;;32.00;51.40;;;;;;6044600;23;20545;-81
2022/06/17 09:32:25;;;;;;;3.87;2.30;;;32.00;50.80;;;;;;6032831;23;20444;-81
2022/06/17 09:34:59;;;;;;;2.27;2.03;;;31.80;50.10;;;;;;6039012;23;20447;-82
2022/06/17 09:37:32;;;;;;;2.20;2.00;;;31.90;49.70;;;;;;6036784;23;20521;-82
2022/06/17 09:40:03;;;;;;;2.30;2.10;;;31.90;49.10;;;;;;6032567;23;20853;-82
2022/06/17 09:42:38;;;;;;;1.90;1.80;;;31.80;49.80;;;;;;6037619;23;20470;-81
2022/06/17 09:45:10;;;;;;;2.00;1.90;;;31.70;48.00;;;;;;6039353;23;20447;-82
2022/06/17 09:47:41;;;;;;;2.30;2.10;;;31.70;49.10;;;;;;6033964;23;20455;-82
2022/06/17 09:50:15;;;;;;;2.03;1.93;;;31.60;48.30;;;;;;6037197;23;20464;-83
2022/06/17 09:52:46;;;;;;;2.27;2.00;;;31.80;48.80;;;;;;6040250;23;20499;-83
2022/06/17 09:55:20;;;;;;;2.40;2.03;;;32.20;47.90;;;;;;6033990;23;20455;-81
2022/06/17 09:57:54;;;;;;;1.70;1.60;;;32.50;47.90;;;;;;6038629;23;20517;-82
2022/06/17 10:00:23;;;;;;;3.13;1.90;;;32.60;47.90;;;;;;6032523;23;20474;-81
2022/06/17 10:02:53;;;;;;;2.13;1.90;;;32.60;47.40;;;;;;6038587;23;20807;-83
2022/06/17 10:05:34;;;;;;;2.50;2.30;;;32.90;47.10;;;;;;6040569;23;20443;-80
2022/06/17 10:08:09;;;;;;;3.10;1.93;;;32.70;46.60;;;;;;6037465;23;20436;-82
2022/06/17 10:10:47;;;;;;;2.33;1.83;;;33.00;47.20;;;;;;6045518;23;21013;-83
2022/06/17 10:13:25;;;;;;;2.43;1.80;;;33.50;47.10;;;;;;6030464;23;20468;-83
2022/06/17 10:19:01;;;;;;;4.90;2.40;;;33.70;47.00;;;;;;6029368;23;20803;-82
2022/06/17 10:21:38;;;;;;;2.37;1.90;;;33.30;48.00;;;;;;6029024;23;20451;-82
2022/06/17 10:24:13;;;;;;;2.57;2.13;;;32.70;46.70;;;;;;6030133;23;20494;-82
2022/06/17 10:26:54;;;;;;;1.93;1.83;;;32.30;47.60;;;;;;6029548;23;20447;-82
2022/06/17 10:29:42;;;;;;;2.50;1.93;;;32.50;47.20;;;;;;6033278;23;20475;-83
2022/06/17 10:32:09;;;;;;;2.10;2.00;;;32.70;46.80;;;;;;6028668;23;20510;-83
2022/06/17 10:34:43;;;;;;;1.90;1.70;;;32.70;46.60;;;;;;6041066;23;20479;-83
2022/06/17 10:37:12;;;;;;;2.30;2.10;;;32.80;46.90;;;;;;6032353;23;21057;-83
2022/06/17 10:39:40;;;;;;;2.07;1.77;;;32.40;47.10;;;;;;6031266;23;20498;-83
2022/06/17 10:42:10;;;;;;;1.90;1.80;;;32.00;48.00;;;;;;6028068;23;20441;-83
2022/06/17 10:44:39;;;;;;;1.77;1.63;;;31.70;47.30;;;;;;6026008;23;20432;-84
2022/06/17 10:47:22;;;;;;;2.80;1.83;;;31.40;46.80;;;;;;6040840;23;20447;-83
2022/06/17 10:49:55;;;;;;;2.03;1.57;;;31.10;47.70;;;;;;6036252;23;20467;-81
2022/06/17 10:52:30;;;;;;;4.07;2.23;;;31.30;47.90;;;;;;6028632;23;20527;-81
2022/06/17 10:54:58;;;;;;;2.40;1.63;;;31.20;47.30;;;;;;6035266;23;21023;-83
2022/06/17 10:57:29;;;;;;;1.90;1.57;;;31.20;47.10;;;;;;6037858;23;20439;-83
2022/06/17 10:59:58;;;;;;;3.73;1.60;;;31.10;47.20;;;;;;6038351;23;20459;-85
2022/06/17 11:02:31;;;;;;;2.10;1.90;;;31.60;47.50;;;;;;6041694;23;20532;-79
2022/06/17 11:05:00;;;;;;;2.20;2.00;;;31.90;45.70;;;;;;6039031;23;20473;-79
2022/06/17 11:07:31;;;;;;;1.73;1.63;;;32.20;45.20;;;;;;6043441;23;20442;-78
2022/06/17 11:10:02;;;;;;;2.57;1.73;;;32.70;45.50;;;;;;6039964;23;20774;-79
2022/06/17 11:12:36;;;;;;;2.80;1.40;;;33.40;45.30;;;;;;6042896;23;20451;-79
2022/06/17 11:15:20;;;;;;;2.23;1.70;;;34.00;43.60;;;;;;6039401;23;20550;-85
2022/06/17 11:17:50;;;;;;;1.93;1.77;;;33.90;41.80;;;;;;6039918;23;20503;-86
2022/06/17 11:20:24;;;;;;;1.50;1.40;;;33.50;43.20;;;;;;6038494;23;20471;-85
2022/06/17 11:22:53;;;;;;;2.00;1.80;;;33.60;44.50;;;;;;6040681;23;20462;-86
2022/06/17 11:25:25;;;;;;;1.93;1.50;;;33.90;44.40;;;;;;6042738;23;20462;-79
2022/06/17 11:27:55;;;;;;;1.60;1.50;;;33.90;43.00;;;;;;6044922;23;20570;-86
2022/06/17 11:30:30;;;;;;;1.70;1.60;;;33.90;44.10;;;;;;6038003;23;20482;-87
2022/06/17 11:32:59;;;;;;;4.67;1.80;;;34.00;42.70;;;;;;6042763;23;20435;-86
2022/06/17 11:35:35;;;;;;;2.17;1.97;;;34.00;43.00;;;;;;6041676;23;20523;-87
2022/06/17 11:38:05;;;;;;;1.63;1.50;;;34.30;43.30;;;;;;6039160;23;20486;-86
2022/06/17 11:40:36;;;;;;;1.87;1.43;;;34.30;42.10;;;;;;6043217;23;20870;-86
2022/06/17 11:43:05;;;;;;;1.80;1.70;;;34.00;41.60;;;;;;6036015;23;20543;-88
2022/06/17 11:45:36;;;;;;;1.60;1.50;;;33.70;41.90;;;;;;6044705;23;20464;-88
2022/06/17 11:48:11;;;;;;;1.53;1.33;;;33.90;42.60;;;;;;6044287;23;20452;-88
2022/06/17 11:50:41;;;;;;;1.63;1.47;;;34.00;42.60;;;;;;6041046;23;21004;-87
2022/06/17 11:53:12;;;;;;;1.60;1.50;;;34.40;41.20;;;;;;6038519;23;20452;-88
2022/06/17 11:55:43;;;;;;;1.63;1.53;;;34.80;41.40;;;;;;6042436;23;20485;-87
2022/06/17 11:58:11;;;;;;;1.70;1.60;;;35.00;42.60;;;;;;6047315;23;20448;-87
2022/06/17 12:00:48;;;;;;;2.67;1.60;;;35.50;41.30;;;;;;6045440;23;20624;-87
2022/06/17 12:03:20;;;;;;;1.93;1.50;;;35.70;41.40;;;;;;6044730;23;20866;-89
2022/06/17 12:05:57;;;;;;;1.60;1.50;;;36.20;40.60;;;;;;6044570;23;20443;-86
2022/06/17 12:08:28;;;;;;;1.30;1.20;;;36.50;40.00;;;;;;6031002;23;20427;-87
2022/06/17 12:10:59;;;;;;;1.70;1.60;;;36.60;40.70;;;;;;6032387;23;20484;-87
2022/06/17 12:13:31;;;;;;;1.40;1.30;;;36.80;39.90;;;;;;6013098;23;20475;-86
2022/06/17 12:16:08;;;;;;;3.80;1.63;;;37.00;39.00;;;;;;6034151;23;20940;-87
2022/06/17 12:18:37;;;;;;;1.43;1.33;;;36.90;37.50;;;;;;6027473;23;20486;-87
2022/06/17 12:21:19;;;;;;;1.30;1.20;;;36.70;38.00;;;;;;6037311;23;20486;-87
2022/06/17 12:23:50;;;;;;;1.30;1.20;;;36.70;39.60;;;;;;6040714;23;20503;-87
2022/06/17 12:26:22;;;;;;;1.73;1.60;;;36.70;39.30;;;;;;6030334;23;20435;-86
2022/06/17 12:28:58;;;;;;;1.47;1.30;;;36.80;38.90;;;;;;6041503;23;20476;-87
2022/06/17 12:31:37;;;;;;;3.33;1.33;;;36.90;39.30;;;;;;6040741;23;20517;-87
2022/06/17 12:34:14;;;;;;;1.43;1.33;;;37.00;38.80;;;;;;6036889;23;20473;-87
2022/06/17 12:36:47;;;;;;;1.30;1.20;;;36.70;37.00;;;;;;6037361;23;20501;-86
2022/06/17 12:39:21;;;;;;;2.10;1.20;;;36.60;37.60;;;;;;6044788;23;20491;-87
2022/06/17 12:41:58;;;;;;;1.40;1.30;;;36.20;36.70;;;;;;6038223;23;21148;-88
2022/06/17 12:44:38;;;;;;;1.50;1.20;;;36.20;37.60;;;;;;6035811;23;20452;-87
2022/06/17 12:47:13;;;;;;;1.50;1.40;;;36.20;37.10;;;;;;6039581;23;20523;-87
2022/06/17 12:55:45;;;;;;;1.37;1.27;;;36.90;35.80;;;;;;6041227;23;20467;-87
2022/06/17 12:58:22;;;;;;;2.50;1.50;;;37.70;36.80;;;;;;6043649;23;20856;-86
2022/06/17 13:00:53;;;;;;;1.57;1.20;;;38.60;35.90;;;;;;6034679;23;20471;-91
2022/06/17 13:03:45;;;;;;;1.30;1.20;;;39.60;33.60;;;;;;6032598;23;20488;-86
2022/06/17 13:06:22;;;;;;;1.20;1.10;;;40.60;32.30;;;;;;6034510;23;21064;-87
2022/06/17 13:08:59;;;;;;;1.53;1.20;;;41.10;33.20;;;;;;6041707;23;20494;-87
2022/06/17 13:11:33;;;;;;;1.80;1.30;;;42.80;32.80;;;;;;6040674;23;20440;-86
2022/06/17 13:14:10;;;;;;;2.23;1.30;;;43.20;31.40;;;;;;6038650;23;21011;-87
2022/06/17 13:16:43;;;;;;;1.73;1.20;;;44.20;31.60;;;;;;6043734;23;20448;-87
2022/06/17 13:19:19;;;;;;;1.67;1.47;;;45.70;31.20;;;;;;6040022;23;20466;-89
2022/06/17 13:21:54;;;;;;;1.60;1.50;;;47.30;29.80;;;;;;6050904;23;20432;-88
2022/06/17 13:24:31;;;;;;;1.70;1.60;;;48.30;29.40;;;;;;6045727;23;20442;-86
2022/06/17 13:27:03;;;;;;;1.30;1.20;;;49.10;28.40;;;;;;6051714;23;20470;-89